Terminal Aerodrome Forecast
Issued by NWS

Current Version | Previous Version | Text Only | Print | Product List | Glossary On
Versions: 1 2 3 4 5 6 7 8 9 10 11 12 13 14 15 16 17 18 19 20 21 22 23 24 25 26 27
088
FTUS46 KLOX 210911 AAA
TAFLAX
TAF AMD
KLAX 210911Z 2109/2212 VRB03KT P6SM SKC
     FM211300 13006KT 6SM BR OVC010
     FM211600 26006KT P6SM FEW010
     FM212000 26012KT P6SM SKC
     FM220400 26007KT P6SM SKC
     FM220900 VRB03KT P6SM OVC010=

USA.gov is the U.S. government's official web portal to all federal, state and local government web resources and services.